createdAt,value
2022-12-17T00:00:41.313Z,29.08
2022-12-17T00:02:01.976Z,28.30
2022-12-17T00:03:22.492Z,27.83
2022-12-17T00:04:42.939Z,27.08
2022-12-17T00:06:03.919Z,27.92
2022-12-17T00:07:24.357Z,28.10
2022-12-17T00:08:44.877Z,27.40
2022-12-17T00:10:05.588Z,25.17
2022-12-17T00:11:25.567Z,26.38
2022-12-17T00:12:46.165Z,26.73
2022-12-17T00:14:06.207Z,26.33
2022-12-17T00:15:26.686Z,26.10
2022-12-17T00:16:47.080Z,28.75
2022-12-17T00:18:07.567Z,30.90
2022-12-17T00:19:28.143Z,27.42
2022-12-17T00:20:53.200Z,25.98
2022-12-17T00:22:33.678Z,24.85
2022-12-17T00:23:53.928Z,25.60
2022-12-17T00:25:16.600Z,27.50
2022-12-17T00:26:36.829Z,26.73
2022-12-17T00:27:57.048Z,26.83
2022-12-17T00:29:16.944Z,26.38
2022-12-17T00:30:37.590Z,28.20
2022-12-17T00:31:57.621Z,31.97
2022-12-17T00:33:17.826Z,27.63
2022-12-17T00:34:37.812Z,28.85
2022-12-17T00:35:58.514Z,29.38
2022-12-17T00:37:18.998Z,28.80
2022-12-17T00:38:39.458Z,27.50
2022-12-17T00:39:59.927Z,25.15
2022-12-17T00:41:20.541Z,26.85
2022-12-17T00:42:41.014Z,26.38
2022-12-17T00:44:01.542Z,23.85
2022-12-17T00:45:22.119Z,22.15
2022-12-17T00:46:42.780Z,23.08
2022-12-17T00:48:03.296Z,23.65
2022-12-17T00:49:23.797Z,21.63
2022-12-17T00:50:44.390Z,24.38
2022-12-17T00:52:04.489Z,23.35
2022-12-17T00:53:24.652Z,24.10
2022-12-17T00:54:45.164Z,21.17
2022-12-17T00:56:19.523Z,18.88
2022-12-17T00:57:39.867Z,22.42
2022-12-17T00:58:59.979Z,22.73
2022-12-17T01:00:20.608Z,21.52
2022-12-17T01:01:40.782Z,19.92
2022-12-17T01:03:01.427Z,18.35
2022-12-17T01:04:22.091Z,19.92
2022-12-17T01:05:42.115Z,18.17
2022-12-17T01:07:02.630Z,17.90
2022-12-17T01:08:27.749Z,18.70
2022-12-17T01:09:48.261Z,19.17
2022-12-17T01:11:08.407Z,17.48
2022-12-17T01:12:28.939Z,20.33
2022-12-17T01:13:49.515Z,19.70
2022-12-17T01:15:17.149Z,18.92
2022-12-17T01:16:37.199Z,18.77
2022-12-17T01:17:57.275Z,18.40
2022-12-17T01:19:18.171Z,17.85
2022-12-17T01:20:38.727Z,18.10
2022-12-17T01:21:59.303Z,20.65
2022-12-17T01:23:19.763Z,22.20
2022-12-17T01:24:40.304Z,18.35
2022-12-17T01:26:00.731Z,17.67
2022-12-17T01:27:21.187Z,21.95
2022-12-17T01:28:43.203Z,21.15
2022-12-17T01:30:03.152Z,20.90
2022-12-17T01:31:23.773Z,18.98
2022-12-17T01:32:43.853Z,19.23
2022-12-17T01:34:05.374Z,19.58
2022-12-17T01:35:25.880Z,19.67
2022-12-17T01:36:46.359Z,21.30
2022-12-17T01:38:06.451Z,18.42
2022-12-17T01:39:27.121Z,19.77
2022-12-17T01:40:47.739Z,18.93
2022-12-17T01:42:08.453Z,18.73
2022-12-17T01:43:32.595Z,17.80
2022-12-17T01:45:14.673Z,17.67
2022-12-17T01:46:35.687Z,18.35
2022-12-17T01:48:04.955Z,17.98
2022-12-17T01:49:27.946Z,16.83
2022-12-17T01:50:52.316Z,17.20
2022-12-17T01:52:12.924Z,17.92
2022-12-17T01:53:37.347Z,17.85
2022-12-17T01:54:58.631Z,15.45
2022-12-17T01:56:19.174Z,16.35
2022-12-17T01:57:39.862Z,13.93
2022-12-17T01:59:00.871Z,13.80
2022-12-17T02:00:25.331Z,13.77
2022-12-17T02:01:46.437Z,16.95
2022-12-17T02:03:07.032Z,16.45
2022-12-17T02:04:28.209Z,17.83
2022-12-17T02:06:22.571Z,16.95
2022-12-17T02:07:57.930Z,15.50
2022-12-17T02:09:44.544Z,15.93
2022-12-17T02:11:24.323Z,17.88
2022-12-17T02:12:52.425Z,19.02
2022-12-17T02:14:39.172Z,18.85
2022-12-17T02:16:07.834Z,20.85
2022-12-17T02:17:31.867Z,18.58
2022-12-17T02:19:02.096Z,16.13
2022-12-17T02:20:46.100Z,16.80
2022-12-17T02:22:12.716Z,16.10
2022-12-17T02:23:59.255Z,16.30
2022-12-17T02:25:32.020Z,18.23
2022-12-17T02:27:21.412Z,18.48
2022-12-17T02:28:42.018Z,18.65
2022-12-17T02:30:07.641Z,20.10
2022-12-17T02:31:28.716Z,19.48
2022-12-17T02:32:50.928Z,19.08
2022-12-17T02:34:12.413Z,19.25
2022-12-17T02:35:36.352Z,18.88
2022-12-17T02:36:56.512Z,19.30
2022-12-17T02:38:17.143Z,21.30
2022-12-17T02:39:37.656Z,21.00
2022-12-17T02:40:58.856Z,20.15
2022-12-17T02:42:19.913Z,20.45
2022-12-17T02:43:43.441Z,19.90
2022-12-17T02:45:04.664Z,21.02
2022-12-17T02:46:26.326Z,20.20
2022-12-17T02:47:47.887Z,19.60
2022-12-17T02:49:08.359Z,18.80
2022-12-17T02:50:29.671Z,20.90
2022-12-17T02:51:50.801Z,20.50
2022-12-17T02:53:11.890Z,21.13
2022-12-17T02:54:32.359Z,18.25
2022-12-17T02:55:54.371Z,19.73
2022-12-17T02:57:14.928Z,20.48
2022-12-17T02:58:35.609Z,18.83
2022-12-17T02:59:56.219Z,15.30
2022-12-17T03:01:16.968Z,19.33
2022-12-17T03:02:37.190Z,18.70
2022-12-17T03:03:57.601Z,19.88
2022-12-17T03:05:43.537Z,20.10
2022-12-17T03:06:57.817Z,18.80
2022-12-17T03:08:18.374Z,18.67
2022-12-17T03:09:38.275Z,19.05
2022-12-17T03:10:58.785Z,19.92
2022-12-17T03:12:19.283Z,20.17
2022-12-17T03:13:44.324Z,18.52
2022-12-17T03:15:05.060Z,20.55
2022-12-17T03:16:37.105Z,19.10
2022-12-17T03:17:58.165Z,21.38
2022-12-17T03:19:18.618Z,20.02
2022-12-17T03:20:39.108Z,19.33
2022-12-17T03:21:59.590Z,16.40
2022-12-17T03:23:29.196Z,15.15
2022-12-17T03:24:49.331Z,18.50
2022-12-17T03:26:10.514Z,18.13
2022-12-17T03:27:31.113Z,16.85
2022-12-17T03:28:51.700Z,17.40
2022-12-17T03:30:11.698Z,18.20
2022-12-17T03:31:31.837Z,19.20
2022-12-17T03:32:51.983Z,17.90
2022-12-17T03:34:12.482Z,18.15
2022-12-17T03:35:33.220Z,17.83
2022-12-17T03:36:53.839Z,18.00
2022-12-17T03:38:13.812Z,17.37
2022-12-17T03:39:34.387Z,16.33
2022-12-17T03:40:54.231Z,18.15
2022-12-17T03:42:14.223Z,16.65
2022-12-17T03:43:34.831Z,16.13
2022-12-17T03:44:55.496Z,17.63
2022-12-17T03:46:16.057Z,16.50
2022-12-17T03:47:36.244Z,18.65
2022-12-17T03:48:56.860Z,17.35
2022-12-17T03:50:17.376Z,18.67
2022-12-17T03:51:37.397Z,19.95
2022-12-17T03:52:57.966Z,20.75
2022-12-17T03:54:18.008Z,18.95
2022-12-17T03:55:38.154Z,20.83
2022-12-17T03:56:58.119Z,21.35
2022-12-17T03:58:18.615Z,20.38
2022-12-17T03:59:39.144Z,20.23
2022-12-17T04:00:59.138Z,21.15
2022-12-17T04:02:19.737Z,20.95
2022-12-17T04:03:40.521Z,20.42
2022-12-17T04:05:01.136Z,20.02
2022-12-17T04:06:21.669Z,21.25
2022-12-17T04:07:42.145Z,19.98
2022-12-17T04:09:02.573Z,19.50
2022-12-17T04:10:22.972Z,18.10
2022-12-17T04:11:42.925Z,18.77
2022-12-17T04:13:03.087Z,17.20
2022-12-17T04:14:23.585Z,19.33
2022-12-17T04:15:44.230Z,19.95
2022-12-17T04:17:04.800Z,20.23
2022-12-17T04:18:24.778Z,20.27
2022-12-17T04:19:44.671Z,17.55
2022-12-17T04:21:04.748Z,18.40
2022-12-17T04:22:25.408Z,19.02
2022-12-17T04:23:46.001Z,21.17
2022-12-17T04:25:06.036Z,18.13
2022-12-17T04:26:26.554Z,21.75
2022-12-17T04:27:47.061Z,21.00
2022-12-17T04:29:07.625Z,23.35
2022-12-17T04:30:28.163Z,22.50
2022-12-17T04:31:48.317Z,23.45
2022-12-17T04:33:08.507Z,21.73
2022-12-17T04:34:28.470Z,21.67
2022-12-17T04:35:49.113Z,23.88
2022-12-17T04:37:09.485Z,21.77
2022-12-17T04:38:30.017Z,23.10
2022-12-17T04:39:50.553Z,20.42
2022-12-17T04:41:11.289Z,23.63
2022-12-17T04:42:31.970Z,23.10
2022-12-17T04:43:52.514Z,20.85
2022-12-17T04:45:13.122Z,17.58
2022-12-17T04:46:33.712Z,17.63
2022-12-17T04:47:53.720Z,15.23
2022-12-17T04:49:13.750Z,19.50
2022-12-17T04:50:34.216Z,15.43
2022-12-17T04:51:54.560Z,19.38
2022-12-17T04:53:22.729Z,20.00
2022-12-17T04:54:43.362Z,18.77
2022-12-17T04:56:04.431Z,18.15
2022-12-17T04:57:24.974Z,18.27
2022-12-17T04:58:45.464Z,17.83
2022-12-17T05:00:05.919Z,18.05
2022-12-17T05:01:26.380Z,18.63
2022-12-17T05:02:47.059Z,18.60
2022-12-17T05:04:07.523Z,18.30
2022-12-17T05:05:27.976Z,15.15
2022-12-17T05:06:48.535Z,17.67
2022-12-17T05:08:15.137Z,17.42
2022-12-17T05:09:35.786Z,18.27
2022-12-17T05:10:56.432Z,17.75
2022-12-17T05:12:16.490Z,17.92
2022-12-17T05:13:36.720Z,15.43
2022-12-17T05:14:57.041Z,13.85
2022-12-17T05:16:17.568Z,15.48
2022-12-17T05:17:38.402Z,14.00
2022-12-17T05:18:59.113Z,13.90
2022-12-17T05:20:19.593Z,15.25
2022-12-17T05:21:40.114Z,13.98
2022-12-17T05:23:00.044Z,16.42
2022-12-17T05:24:20.512Z,17.00
2022-12-17T05:25:41.023Z,15.18
2022-12-17T05:27:01.728Z,16.30
2022-12-17T05:28:22.313Z,12.83
2022-12-17T05:29:42.744Z,16.73
2022-12-17T05:31:10.975Z,16.05
2022-12-17T05:32:31.508Z,15.27
2022-12-17T05:33:51.560Z,16.63
2022-12-17T05:35:12.193Z,15.75
2022-12-17T05:36:32.695Z,16.75
2022-12-17T05:37:52.721Z,16.33
2022-12-17T05:39:13.263Z,15.48
2022-12-17T05:40:33.833Z,15.95
2022-12-17T05:41:54.239Z,15.63
2022-12-17T05:43:14.223Z,17.17
2022-12-17T05:44:34.784Z,16.58
2022-12-17T05:45:57.099Z,18.05
2022-12-17T05:47:17.536Z,19.50
2022-12-17T05:48:37.599Z,18.55
2022-12-17T05:49:57.699Z,18.63
2022-12-17T05:51:17.765Z,19.52
2022-12-17T05:52:37.767Z,20.25
2022-12-17T05:53:57.731Z,19.98
2022-12-17T05:55:17.640Z,20.98
2022-12-17T05:56:38.139Z,21.70
2022-12-17T05:57:58.650Z,20.83
2022-12-17T05:59:19.168Z,20.90
2022-12-17T06:00:39.747Z,20.65
2022-12-17T06:02:00.481Z,20.25
2022-12-17T06:03:22.662Z,21.30
2022-12-17T06:04:42.972Z,19.98
2022-12-17T06:06:03.534Z,20.80
2022-12-17T06:07:24.152Z,23.35
2022-12-17T06:08:44.178Z,26.27
2022-12-17T06:10:04.864Z,24.08
2022-12-17T06:11:25.311Z,25.05
2022-12-17T06:12:45.709Z,23.55
2022-12-17T06:14:06.099Z,23.75
2022-12-17T06:15:26.789Z,22.92
2022-12-17T06:16:47.311Z,24.27
2022-12-17T06:18:16.878Z,28.75
2022-12-17T06:19:38.100Z,27.88
2022-12-17T06:20:58.768Z,23.75
2022-12-17T06:22:19.300Z,23.77
2022-12-17T06:23:39.457Z,20.02
2022-12-17T06:24:59.871Z,21.42
2022-12-17T06:26:19.865Z,18.33
2022-12-17T06:27:39.863Z,19.20
2022-12-17T06:29:01.104Z,21.05
2022-12-17T06:30:21.602Z,21.60
2022-12-17T06:31:42.269Z,20.83
2022-12-17T06:33:07.222Z,20.05
2022-12-17T06:34:27.430Z,18.67
2022-12-17T06:35:47.970Z,15.35
2022-12-17T06:37:08.659Z,16.73
2022-12-17T06:38:29.139Z,19.67
2022-12-17T06:39:49.570Z,19.20
2022-12-17T06:41:10.996Z,21.13
2022-12-17T06:42:31.333Z,18.98
2022-12-17T06:43:51.947Z,17.35
2022-12-17T06:45:12.010Z,17.40
2022-12-17T06:46:32.634Z,18.67
2022-12-17T06:47:53.119Z,19.27
2022-12-17T06:49:13.613Z,19.55
2022-12-17T06:50:34.251Z,21.42
2022-12-17T06:51:54.235Z,22.30
2022-12-17T06:53:21.836Z,22.83
2022-12-17T06:54:42.439Z,17.60
2022-12-17T06:56:03.052Z,20.38
2022-12-17T06:57:23.014Z,16.27
2022-12-17T06:58:43.000Z,16.95
2022-12-17T07:00:03.653Z,19.23
2022-12-17T07:01:24.219Z,18.73
2022-12-17T07:02:44.759Z,21.90
2022-12-17T07:04:05.141Z,23.92
2022-12-17T07:05:25.700Z,19.35
2022-12-17T07:06:45.854Z,15.98
2022-12-17T07:08:06.452Z,20.40
2022-12-17T07:09:26.819Z,18.92
2022-12-17T07:10:47.219Z,20.08
2022-12-17T07:12:07.741Z,19.60
2022-12-17T07:13:28.793Z,19.42
2022-12-17T07:14:48.825Z,19.08
2022-12-17T07:16:09.992Z,22.02
2022-12-17T07:18:50.705Z,19.73
2022-12-17T07:20:10.612Z,20.67
2022-12-17T07:21:44.872Z,27.40
2022-12-17T07:23:05.346Z,85.47
2022-12-17T07:24:25.823Z,24.85
2022-12-17T07:25:46.561Z,20.73
2022-12-17T07:27:06.688Z,32.83
2022-12-17T07:28:27.313Z,69.82
2022-12-17T07:29:47.785Z,24.73
2022-12-17T07:31:18.996Z,35.83
2022-12-17T07:32:38.995Z,23.60
2022-12-17T07:33:59.487Z,72.88
2022-12-17T07:35:19.942Z,31.25
2022-12-17T07:36:40.209Z,25.80
2022-12-17T07:38:00.863Z,25.52
2022-12-17T07:39:21.464Z,22.33
2022-12-17T07:40:42.154Z,20.42
2022-12-17T07:42:02.655Z,35.20
2022-12-17T07:43:29.936Z,28.92
2022-12-17T07:44:50.586Z,21.75
2022-12-17T07:46:11.150Z,18.10
2022-12-17T07:47:31.722Z,54.13
2022-12-17T07:48:51.815Z,40.92
2022-12-17T07:50:12.289Z,28.35
2022-12-17T07:51:32.428Z,21.80
2022-12-17T07:52:52.965Z,18.33
2022-12-17T07:54:13.362Z,18.73
2022-12-17T07:55:33.868Z,18.33
2022-12-17T07:56:54.401Z,18.70
2022-12-17T07:58:23.769Z,18.13
2022-12-17T07:59:44.286Z,19.35
2022-12-17T08:01:04.371Z,19.05
2022-12-17T08:02:25.289Z,18.55
2022-12-17T08:03:46.185Z,21.73
2022-12-17T08:05:06.720Z,20.60
2022-12-17T08:06:44.128Z,20.42
2022-12-17T08:08:04.211Z,19.02
2022-12-17T08:09:24.301Z,19.00
2022-12-17T08:10:44.720Z,23.45
2022-12-17T08:12:05.327Z,23.90
2022-12-17T08:13:26.011Z,20.67
2022-12-17T08:14:46.077Z,20.58
2022-12-17T08:16:07.615Z,20.15
2022-12-17T08:18:48.345Z,19.42
2022-12-17T08:20:15.948Z,18.27
2022-12-17T08:21:36.368Z,18.92
2022-12-17T08:22:57.792Z,19.60
2022-12-17T08:24:18.055Z,19.83
2022-12-17T08:25:38.682Z,19.10
2022-12-17T08:26:59.062Z,19.90
2022-12-17T08:28:52.115Z,18.20
2022-12-17T08:30:12.685Z,18.48
2022-12-17T08:31:32.835Z,18.27
2022-12-17T08:32:53.332Z,19.13
2022-12-17T08:34:13.389Z,18.83
2022-12-17T08:35:34.042Z,18.63
2022-12-17T08:36:54.623Z,17.87
2022-12-17T08:38:25.413Z,18.53
2022-12-17T08:39:46.166Z,17.23
2022-12-17T08:41:06.747Z,16.33
2022-12-17T08:42:27.165Z,16.33
2022-12-17T08:43:47.726Z,16.05
2022-12-17T08:45:07.676Z,16.85
2022-12-17T08:46:27.867Z,18.58
2022-12-17T08:47:48.516Z,20.17
2022-12-17T08:49:09.197Z,19.73
2022-12-17T08:50:29.784Z,35.95
2022-12-17T08:51:50.286Z,22.13
2022-12-17T08:53:21.567Z,18.80
2022-12-17T08:54:42.191Z,19.42
2022-12-17T08:56:02.741Z,20.05
2022-12-17T08:57:31.369Z,20.90
2022-12-17T08:58:57.220Z,20.42
2022-12-17T09:00:19.753Z,19.75
2022-12-17T09:01:40.411Z,20.02
2022-12-17T09:03:01.014Z,21.63
2022-12-17T09:04:21.544Z,19.37
2022-12-17T09:05:41.977Z,20.13
2022-12-17T09:07:02.427Z,20.23
2022-12-17T09:08:25.376Z,19.85
2022-12-17T09:09:47.293Z,19.58
2022-12-17T09:11:07.736Z,19.10
2022-12-17T09:12:28.201Z,42.55
2022-12-17T09:13:48.817Z,23.85
2022-12-17T09:15:09.369Z,19.05
2022-12-17T09:16:30.089Z,19.75
2022-12-17T09:17:50.772Z,20.55
2022-12-17T09:19:11.194Z,19.02
2022-12-17T09:20:31.532Z,20.58
2022-12-17T09:21:51.994Z,21.65
2022-12-17T09:23:12.720Z,20.55
2022-12-17T09:24:33.291Z,20.83
2022-12-17T09:25:58.089Z,18.43
2022-12-17T09:27:18.795Z,18.38
2022-12-17T09:28:39.469Z,20.17
2022-12-17T09:29:59.946Z,23.40
2022-12-17T09:31:20.534Z,21.33
2022-12-17T09:32:41.024Z,21.50
2022-12-17T09:34:01.632Z,18.70
2022-12-17T09:35:22.110Z,18.33
2022-12-17T09:36:48.041Z,18.05
2022-12-17T09:38:12.693Z,19.73
2022-12-17T09:39:33.229Z,18.90
2022-12-17T09:40:53.911Z,19.83
2022-12-17T09:42:23.046Z,22.08
2022-12-17T09:43:46.247Z,21.40
2022-12-17T09:45:25.173Z,19.90
2022-12-17T09:46:58.991Z,22.02
2022-12-17T09:48:38.201Z,22.13
2022-12-17T09:49:58.836Z,23.20
2022-12-17T09:51:19.575Z,23.20
2022-12-17T09:52:50.339Z,22.85
2022-12-17T09:54:12.623Z,22.80
2022-12-17T09:55:38.570Z,23.15
2022-12-17T09:57:17.908Z,23.02
2022-12-17T09:58:39.082Z,19.88
2022-12-17T09:59:59.169Z,22.77
2022-12-17T10:01:19.748Z,23.20
2022-12-17T10:02:44.767Z,22.60
2022-12-17T10:04:06.054Z,21.10
2022-12-17T10:05:49.631Z,21.85
2022-12-17T10:07:10.036Z,20.35
2022-12-17T10:08:34.086Z,21.13
2022-12-17T10:09:55.652Z,21.33
2022-12-17T10:11:34.327Z,20.63
2022-12-17T10:12:55.522Z,20.88
2022-12-17T10:14:15.992Z,19.85
2022-12-17T10:15:36.598Z,21.23
2022-12-17T10:17:09.896Z,21.27
2022-12-17T10:18:34.331Z,21.27
2022-12-17T10:19:58.038Z,22.25
2022-12-17T10:21:25.567Z,21.38
2022-12-17T10:22:46.535Z,21.60
2022-12-17T10:24:07.118Z,21.88
2022-12-17T10:25:38.349Z,27.55
2022-12-17T10:27:07.631Z,23.85
2022-12-17T10:28:33.731Z,20.08
2022-12-17T10:29:54.413Z,19.73
2022-12-17T10:31:15.611Z,21.20
2022-12-17T10:32:35.610Z,20.98
2022-12-17T10:33:57.609Z,19.40
2022-12-17T10:35:19.167Z,18.88
2022-12-17T10:36:41.672Z,19.95
2022-12-17T10:38:02.340Z,17.75
2022-12-17T10:39:37.573Z,18.97
2022-12-17T10:40:57.981Z,21.02
2022-12-17T10:42:17.980Z,18.73
2022-12-17T10:43:42.160Z,19.13
2022-12-17T10:45:02.755Z,18.48
2022-12-17T10:46:23.248Z,18.27
2022-12-17T10:47:45.864Z,18.52
2022-12-17T10:49:11.242Z,17.48
2022-12-17T10:50:40.708Z,17.75
2022-12-17T10:52:01.212Z,19.17
2022-12-17T10:53:23.758Z,17.98
2022-12-17T10:54:49.928Z,18.45
2022-12-17T10:56:18.591Z,17.35
2022-12-17T10:57:41.594Z,17.98
2022-12-17T10:59:04.307Z,17.80
2022-12-17T11:00:56.112Z,17.25
2022-12-17T11:02:18.205Z,17.05
2022-12-17T11:03:53.203Z,16.85
2022-12-17T11:05:13.829Z,16.95
2022-12-17T11:06:50.615Z,16.88
2022-12-17T11:08:11.188Z,18.02
2022-12-17T11:09:48.657Z,16.90
2022-12-17T11:11:09.258Z,17.38
2022-12-17T11:12:31.490Z,17.23
2022-12-17T11:13:58.828Z,16.55
2022-12-17T11:15:35.572Z,16.33
2022-12-17T11:17:02.416Z,16.42
2022-12-17T11:18:24.939Z,16.42
2022-12-17T11:20:00.411Z,16.48
2022-12-17T11:21:33.662Z,17.25
2022-12-17T11:23:01.344Z,17.50
2022-12-17T11:24:22.995Z,17.52
2022-12-17T11:26:05.352Z,21.65
2022-12-17T11:27:30.082Z,18.25
2022-12-17T11:29:05.386Z,18.08
2022-12-17T11:30:35.396Z,29.13
2022-12-17T11:32:13.792Z,43.20
2022-12-17T11:33:45.954Z,18.35
2022-12-17T11:35:32.766Z,18.33
2022-12-17T11:37:03.066Z,19.48
2022-12-17T11:38:34.283Z,19.67
2022-12-17T11:40:16.217Z,18.98
2022-12-17T11:42:09.541Z,20.20
2022-12-17T11:43:40.845Z,20.70
2022-12-17T11:45:18.100Z,20.30
2022-12-17T11:46:46.827Z,21.50
2022-12-17T11:48:20.529Z,20.60
2022-12-17T11:49:49.790Z,20.73
2022-12-17T11:51:35.626Z,21.30
2022-12-17T11:53:04.156Z,19.42
2022-12-17T11:54:24.453Z,18.70
2022-12-17T11:55:47.582Z,18.02
2022-12-17T11:57:15.035Z,18.65
2022-12-17T11:59:06.999Z,19.05
2022-12-17T12:00:36.460Z,18.38
2022-12-17T12:02:37.940Z,18.52
2022-12-17T12:03:58.136Z,20.53
2022-12-17T12:05:49.812Z,20.77
2022-12-17T12:07:50.222Z,20.60
2022-12-17T12:09:22.946Z,20.35
2022-12-17T12:10:46.918Z,18.27
2022-12-17T12:12:24.113Z,19.52
2022-12-17T12:13:56.602Z,19.65
2022-12-17T12:15:39.387Z,18.75
2022-12-17T12:17:02.361Z,19.75
2022-12-17T12:18:29.498Z,19.65
2022-12-17T12:20:12.007Z,17.80
2022-12-17T12:21:46.838Z,17.15
2022-12-17T12:23:37.259Z,16.83
2022-12-17T12:25:24.959Z,20.38
2022-12-17T12:26:54.129Z,17.02
2022-12-17T12:28:29.469Z,15.63
2022-12-17T12:30:12.735Z,15.32
2022-12-17T12:31:45.097Z,13.85
2022-12-17T12:33:23.133Z,14.32
2022-12-17T12:34:50.224Z,13.90
2022-12-17T12:36:14.792Z,17.13
2022-12-17T12:37:37.175Z,16.73
2022-12-17T12:39:02.306Z,16.63
2022-12-17T12:40:44.656Z,13.73
2022-12-17T12:42:18.187Z,12.20
2022-12-17T12:43:51.948Z,12.32
2022-12-17T12:45:37.179Z,14.75
2022-12-17T12:47:06.410Z,14.98
2022-12-17T12:48:38.460Z,15.75
2022-12-17T12:50:19.226Z,14.30
2022-12-17T12:51:44.305Z,12.00
2022-12-17T12:53:04.777Z,11.27
2022-12-17T12:54:43.790Z,7.80
2022-12-17T12:56:04.287Z,7.40
2022-12-17T12:57:52.594Z,6.78
2022-12-17T12:59:12.993Z,7.40
2022-12-17T13:00:54.518Z,8.43
2022-12-17T13:02:15.250Z,8.07
2022-12-17T13:03:53.257Z,8.05
2022-12-17T13:05:13.622Z,8.95
2022-12-17T13:06:44.553Z,10.13
2022-12-17T13:07:46.225Z,19.85
2022-12-17T13:08:50.411Z,14.98
2022-12-17T13:09:55.142Z,13.52
2022-12-17T13:10:56.788Z,14.60
2022-12-17T13:12:04.612Z,12.10
2022-12-17T13:13:18.502Z,11.07
2022-12-17T13:14:24.701Z,9.90
2022-12-17T13:15:51.377Z,8.32
2022-12-17T13:17:08.541Z,7.97
2022-12-17T13:18:23.236Z,7.45
2022-12-17T13:19:31.380Z,6.50
2022-12-17T13:20:34.685Z,7.10
2022-12-17T13:21:36.475Z,7.63
2022-12-17T13:22:53.132Z,7.40
2022-12-17T13:23:54.847Z,6.85
2022-12-17T13:25:17.442Z,5.85
2022-12-17T13:26:20.971Z,11.52
2022-12-17T13:27:36.413Z,14.10
2022-12-17T13:28:38.731Z,14.20
2022-12-17T13:29:40.599Z,15.20
2022-12-17T13:30:42.373Z,15.10
2022-12-17T13:31:49.716Z,15.75
2022-12-17T13:33:19.090Z,15.32
2022-12-17T13:34:32.903Z,17.27
2022-12-17T13:35:57.919Z,17.48
2022-12-17T13:37:18.039Z,19.80
2022-12-17T13:38:41.784Z,20.95
2022-12-17T13:40:06.525Z,21.67
2022-12-17T13:41:19.847Z,21.75
2022-12-17T13:42:38.515Z,22.52
2022-12-17T13:43:54.790Z,23.02
2022-12-17T13:44:58.249Z,22.42
2022-12-17T13:46:00.522Z,23.30
2022-12-17T13:47:02.270Z,22.17
2022-12-17T13:48:04.106Z,22.92
2022-12-17T13:49:17.984Z,21.88
2022-12-17T13:50:35.212Z,24.73
2022-12-17T13:51:37.925Z,25.63
2022-12-17T13:52:39.596Z,25.00
2022-12-17T13:53:52.283Z,26.17
2022-12-17T13:54:55.416Z,25.15
2022-12-17T13:55:59.083Z,25.20
2022-12-17T13:57:18.037Z,25.63
2022-12-17T13:58:28.322Z,26.30
2022-12-17T13:59:30.256Z,27.13
2022-12-17T14:00:32.700Z,26.25
2022-12-17T14:01:44.941Z,26.73
2022-12-17T14:02:46.895Z,26.20
2022-12-17T14:04:06.263Z,25.30
2022-12-17T14:05:25.803Z,24.80
2022-12-17T14:06:33.255Z,24.02
2022-12-17T14:07:39.108Z,24.17
2022-12-17T14:08:41.950Z,22.00
2022-12-17T14:09:44.191Z,24.52
2022-12-17T14:11:14.659Z,23.30
2022-12-17T14:12:25.317Z,23.45
2022-12-17T14:13:27.182Z,26.42
2022-12-17T14:14:38.341Z,26.02
2022-12-17T14:16:50.799Z,25.77
2022-12-17T14:17:54.930Z,29.08
2022-12-17T14:18:59.304Z,27.45
2022-12-17T14:20:25.580Z,27.85
2022-12-17T14:21:28.932Z,28.27
2022-12-17T14:22:37.420Z,28.52
2022-12-17T14:23:40.968Z,28.77
2022-12-17T14:24:42.800Z,27.10
2022-12-17T14:25:44.762Z,28.98
2022-12-17T14:26:50.361Z,27.10
2022-12-17T14:27:53.586Z,26.48
2022-12-17T14:28:56.468Z,28.48
2022-12-17T14:29:58.383Z,29.27
2022-12-17T14:31:27.026Z,28.05
2022-12-17T14:32:35.461Z,28.27
2022-12-17T14:33:37.963Z,30.35
2022-12-17T14:34:43.118Z,30.45
2022-12-17T14:35:52.420Z,31.05
2022-12-17T14:36:58.230Z,33.22
2022-12-17T14:37:59.940Z,32.47
2022-12-17T14:39:16.721Z,33.60
2022-12-17T14:40:18.747Z,31.77
2022-12-17T14:41:39.377Z,33.05
2022-12-17T14:42:41.139Z,32.65
2022-12-17T14:43:42.873Z,32.53
2022-12-17T14:44:54.498Z,32.15
2022-12-17T14:46:18.932Z,34.15
2022-12-17T14:47:32.484Z,34.58
2022-12-17T14:48:53.060Z,34.35
2022-12-17T14:50:05.191Z,33.10
2022-12-17T14:51:06.885Z,33.33
2022-12-17T14:52:13.743Z,33.58
2022-12-17T14:53:27.045Z,34.85
2022-12-17T14:54:30.044Z,29.05
2022-12-17T14:55:55.191Z,30.52
2022-12-17T14:56:59.705Z,30.15
2022-12-17T14:58:16.495Z,28.95
2022-12-17T14:59:37.360Z,28.90
2022-12-17T15:00:40.225Z,30.23
2022-12-17T15:01:42.088Z,28.23
2022-12-17T15:02:46.234Z,29.92
2022-12-17T15:03:48.084Z,29.25
2022-12-17T15:04:52.224Z,27.73
2022-12-17T15:06:06.522Z,28.27
2022-12-17T15:07:17.893Z,30.10
2022-12-17T15:08:20.998Z,32.35
2022-12-17T15:09:22.787Z,30.20
2022-12-17T15:10:24.570Z,29.58
2022-12-17T15:11:26.286Z,27.48
2022-12-17T15:12:28.314Z,27.02
2022-12-17T15:13:29.989Z,28.17
2022-12-17T15:14:31.757Z,28.15
2022-12-17T15:15:33.462Z,28.35
2022-12-17T15:16:35.233Z,31.65
2022-12-17T15:17:36.941Z,33.20
2022-12-17T15:18:39.320Z,34.92
2022-12-17T15:19:41.552Z,36.88
2022-12-17T15:20:43.513Z,38.25
2022-12-17T15:21:45.284Z,38.10
2022-12-17T15:22:47.975Z,36.15
2022-12-17T15:23:49.716Z,33.35
2022-12-17T15:24:51.700Z,31.55
2022-12-17T15:25:54.817Z,28.70
2022-12-17T15:26:56.541Z,28.42
2022-12-17T15:27:58.963Z,25.00
2022-12-17T15:29:00.714Z,25.08
2022-12-17T15:30:02.436Z,27.30
2022-12-17T15:31:04.307Z,31.83
2022-12-17T15:32:06.080Z,32.30
2022-12-17T15:33:09.111Z,30.40
2022-12-17T15:34:11.852Z,27.80
2022-12-17T15:35:14.289Z,25.67
2022-12-17T15:36:15.973Z,22.85
2022-12-17T15:37:21.133Z,23.23
2022-12-17T15:38:25.758Z,23.05
2022-12-17T15:39:27.513Z,22.55
2022-12-17T15:40:29.198Z,20.90
2022-12-17T15:41:49.607Z,21.50
2022-12-17T15:43:09.981Z,18.75
2022-12-17T15:44:11.680Z,17.80
2022-12-17T15:45:13.351Z,16.38
2022-12-17T15:46:15.222Z,15.00
2022-12-17T15:47:16.910Z,15.10
2022-12-17T15:48:23.511Z,16.00
2022-12-17T15:49:25.218Z,15.35
2022-12-17T15:50:27.111Z,14.43
2022-12-17T15:51:28.805Z,12.88
2022-12-17T15:52:30.534Z,8.27
2022-12-17T15:53:32.222Z,7.95
2022-12-17T15:54:33.917Z,5.53
2022-12-17T15:55:36.688Z,5.05
2022-12-17T15:56:38.992Z,4.05
2022-12-17T15:57:40.755Z,4.60
2022-12-17T15:58:42.398Z,4.40
2022-12-17T15:59:44.091Z,4.70
2022-12-17T16:00:45.820Z,5.13
2022-12-17T16:01:47.628Z,4.55
2022-12-17T16:02:49.755Z,5.20
2022-12-17T16:03:53.130Z,4.78
2022-12-17T16:04:55.207Z,5.15
2022-12-17T16:06:00.621Z,4.95
2022-12-17T16:07:02.281Z,4.80
2022-12-17T16:08:04.068Z,4.40
2022-12-17T16:09:05.772Z,6.13
2022-12-17T16:10:07.758Z,6.40
2022-12-17T16:11:10.907Z,6.90
2022-12-17T16:12:12.629Z,7.90
2022-12-17T16:13:15.814Z,8.88
2022-12-17T16:14:17.477Z,9.82
2022-12-17T16:15:19.169Z,9.02
2022-12-17T16:16:21.302Z,9.88
2022-12-17T16:17:23.026Z,9.75
2022-12-17T16:18:24.728Z,9.55
2022-12-17T16:19:26.740Z,9.38
2022-12-17T16:20:28.479Z,9.73
2022-12-17T16:21:30.159Z,10.32
2022-12-17T16:22:32.136Z,9.25
2022-12-17T16:23:34.687Z,8.57
2022-12-17T16:24:36.452Z,8.65
2022-12-17T16:25:38.098Z,9.60
2022-12-17T16:26:39.812Z,11.70
2022-12-17T16:27:42.764Z,13.20
2022-12-17T16:28:44.790Z,14.32
2022-12-17T16:29:48.231Z,11.90
2022-12-17T16:30:58.701Z,11.70
2022-12-17T16:32:01.128Z,11.43
2022-12-17T16:33:02.829Z,11.93
2022-12-17T16:34:09.193Z,12.15
2022-12-17T16:35:10.973Z,12.30
2022-12-17T16:36:15.692Z,12.05
2022-12-17T16:37:17.412Z,12.30
2022-12-17T16:38:19.100Z,12.82
2022-12-17T16:39:21.696Z,11.80
2022-12-17T16:40:23.359Z,11.15
2022-12-17T16:41:25.098Z,11.65
2022-12-17T16:42:26.817Z,12.57
2022-12-17T16:43:32.889Z,14.63
2022-12-17T16:44:34.598Z,14.85
2022-12-17T16:45:46.135Z,14.52
2022-12-17T16:46:47.987Z,22.45
2022-12-17T16:47:50.824Z,29.45
2022-12-17T16:48:53.539Z,31.15
2022-12-17T16:49:55.252Z,27.75
2022-12-17T16:50:56.931Z,30.42
2022-12-17T16:51:59.543Z,32.35
2022-12-17T16:53:01.364Z,30.52
2022-12-17T16:54:08.131Z,31.67
2022-12-17T16:55:10.017Z,33.47
2022-12-17T16:56:19.531Z,34.80
2022-12-17T16:57:21.217Z,34.88
2022-12-17T16:58:22.883Z,35.50
2022-12-17T16:59:24.668Z,39.63
2022-12-17T17:00:26.337Z,36.10
2022-12-17T17:01:29.208Z,36.33
2022-12-17T17:02:31.430Z,35.17
2022-12-17T17:03:33.463Z,34.55